Time;durP1;ratioP1;P1;durP2;ratioP2;P2;SDS_P1;SDS_P2;PMS_P1;PMS_P2;Temp;Humidity;BMP_temperature;BMP_pressure;BME280_temperature;BME280_humidity;BME280_pressure;Samples;Min_cycle;Max_cycle;Signal;HPM_P1;HPM_P2
2024/02/21 00:00:53;;;;;;;10.20;4.50;;;;;;;6.16;100.00;99103.63;6100749;19;19998;-71
2024/02/21 00:02:54;;;;;;;14.20;5.32;;;;;;;6.12;100.00;99100.75;6102945;19;19998;-71
2024/02/21 00:04:54;;;;;;;7.43;4.10;;;;;;;6.19;100.00;99094.69;6100669;19;20468;-71
2024/02/21 00:06:54;;;;;;;6.95;4.15;;;;;;;6.18;100.00;99099.38;6101904;19;20033;-71
2024/02/21 00:08:55;;;;;;;13.35;4.43;;;;;;;6.17;100.00;99084.03;6100281;19;20002;-71
2024/02/21 00:10:55;;;;;;;11.95;4.32;;;;;;;6.16;100.00;99079.69;6101334;19;20006;-71
2024/02/21 00:12:55;;;;;;;6.60;3.17;;;;;;;6.13;100.00;99077.63;6101284;19;20086;-71
2024/02/21 00:14:56;;;;;;;9.85;3.72;;;;;;;6.17;100.00;99075.81;6103349;19;20015;-71
2024/02/21 00:16:56;;;;;;;10.88;4.45;;;;;;;6.16;100.00;99070.66;6109698;19;20454;-72
2024/02/21 00:18:56;;;;;;;8.90;4.40;;;;;;;6.13;100.00;99083.13;6108007;19;20975;-71
2024/02/21 00:20:57;;;;;;;9.38;4.13;;;;;;;6.20;100.00;99074.31;6108927;19;20472;-71
2024/02/21 00:22:57;;;;;;;10.18;4.05;;;;;;;6.23;100.00;99081.91;6108660;19;19998;-71
2024/02/21 00:24:58;;;;;;;12.00;3.78;;;;;;;6.22;100.00;99077.56;6109800;19;19995;-71
2024/02/21 00:26:58;;;;;;;10.02;4.57;;;;;;;6.28;100.00;99064.41;6109052;19;19999;-71
2024/02/21 00:28:58;;;;;;;8.45;4.15;;;;;;;6.27;100.00;99065.56;6108196;19;20379;-71
2024/02/21 00:30:59;;;;;;;12.77;4.10;;;;;;;6.25;100.00;99065.09;6107914;19;20408;-71
2024/02/21 00:32:59;;;;;;;9.07;3.88;;;;;;;6.28;100.00;99069.91;6108607;19;20462;-71
2024/02/21 00:35:00;;;;;;;10.15;3.95;;;;;;;6.29;100.00;99068.75;6109337;19;20344;-71
2024/02/21 00:37:00;;;;;;;12.00;4.90;;;;;;;6.26;100.00;99069.44;6109642;19;20065;-71
2024/02/21 00:39:00;;;;;;;16.88;3.80;;;;;;;6.29;100.00;99066.00;6106927;19;19999;-71
2024/02/21 00:41:01;;;;;;;12.20;3.83;;;;;;;6.24;100.00;99066.22;6108242;19;20325;-71
2024/02/21 00:43:01;;;;;;;12.27;3.85;;;;;;;6.19;100.00;99067.22;6109328;19;20006;-71
2024/02/21 00:45:01;;;;;;;8.38;3.75;;;;;;;6.15;100.00;99056.09;6109059;19;20009;-71
2024/02/21 00:47:02;;;;;;;10.70;3.88;;;;;;;6.12;100.00;99059.53;6107679;19;20028;-71
2024/02/21 00:49:02;;;;;;;9.05;3.42;;;;;;;6.09;100.00;99071.19;6108526;19;19999;-71
2024/02/21 00:51:03;;;;;;;9.80;3.40;;;;;;;6.11;100.00;99062.59;6107591;19;19994;-71
2024/02/21 00:53:03;;;;;;;11.20;4.05;;;;;;;6.12;100.00;99066.94;6108439;19;19995;-71
2024/02/21 00:55:04;;;;;;;7.00;3.97;;;;;;;6.08;100.00;99060.53;6108912;19;20003;-71
2024/02/21 00:57:05;;;;;;;10.88;3.95;;;;;;;6.07;100.00;99062.47;6108539;19;19998;-71
2024/02/21 00:59:05;;;;;;;13.95;4.75;;;;;;;6.12;100.00;99070.53;6107368;19;20010;-71
2024/02/21 01:01:05;;;;;;;11.18;3.85;;;;;;;6.10;100.00;99058.25;6107923;19;20424;-71
2024/02/21 01:03:06;;;;;;;9.48;3.33;;;;;;;6.06;100.00;99046.31;6109110;19;20006;-71
2024/02/21 01:05:06;;;;;;;11.70;4.22;;;;;;;6.08;100.00;99050.34;6108829;19;20071;-71
2024/02/21 01:07:07;;;;;;;5.85;3.53;;;;;;;6.10;100.00;99050.00;6107433;19;19995;-71
2024/02/21 01:09:07;;;;;;;9.10;3.53;;;;;;;6.17;100.00;99048.31;6105636;19;20003;-71
2024/02/21 01:11:08;;;;;;;10.02;4.68;;;;;;;6.16;100.00;99057.72;6108001;19;20026;-71
2024/02/21 01:13:08;;;;;;;12.68;3.78;;;;;;;6.17;100.00;99047.53;6107500;19;20002;-71
2024/02/21 01:15:09;;;;;;;12.35;3.97;;;;;;;6.17;100.00;99056.56;6109086;19;20005;-71
2024/02/21 01:17:09;;;;;;;7.43;3.22;;;;;;;6.11;100.00;99046.09;6107814;19;20005;-71
2024/02/21 01:19:09;;;;;;;9.40;3.70;;;;;;;6.12;100.00;99047.72;6107409;19;20003;-71
2024/02/21 01:21:10;;;;;;;12.20;4.03;;;;;;;6.17;100.00;99025.53;6107211;19;20472;-71
2024/02/21 01:23:10;;;;;;;11.95;3.90;;;;;;;6.12;100.00;99015.56;6106822;19;20336;-71
2024/02/21 01:25:10;;;;;;;8.23;3.80;;;;;;;6.16;100.00;99023.94;6108357;19;20003;-71
2024/02/21 01:27:11;;;;;;;8.95;3.75;;;;;;;6.13;100.00;99008.13;6108277;19;20014;-71
2024/02/21 01:29:11;;;;;;;6.30;3.83;;;;;;;6.13;100.00;99017.19;6106797;19;20020;-71
2024/02/21 01:31:12;;;;;;;11.38;4.05;;;;;;;6.12;100.00;99007.34;6107355;19;20007;-71
2024/02/21 01:33:13;;;;;;;8.45;3.70;;;;;;;6.09;100.00;99004.44;6107149;19;20023;-72
2024/02/21 01:35:13;;;;;;;7.97;4.20;;;;;;;6.08;100.00;99000.09;6108335;19;20014;-71
2024/02/21 01:37:13;;;;;;;10.23;3.90;;;;;;;6.14;100.00;99018.78;6107958;19;20007;-71
2024/02/21 01:39:14;;;;;;;9.82;4.30;;;;;;;6.13;100.00;99011.69;6106952;19;20010;-71
2024/02/21 01:41:14;;;;;;;10.48;4.10;;;;;;;6.10;100.00;99008.78;6107515;19;20007;-71
2024/02/21 01:43:20;;;;;;;7.68;4.05;;;;;;;6.05;100.00;99001.56;6107889;19;20002;-71
2024/02/21 01:45:20;;;;;;;9.77;4.47;;;;;;;6.04;100.00;99008.22;6106830;19;20022;-71
2024/02/21 01:47:21;;;;;;;9.27;4.38;;;;;;;6.04;100.00;99008.22;6106595;19;20003;-71
2024/02/21 01:49:22;;;;;;;12.55;4.28;;;;;;;6.08;100.00;98997.34;6105661;19;19999;-71
2024/02/21 01:51:23;;;;;;;11.05;3.38;;;;;;;6.11;100.00;98999.41;6110173;19;20509;-71
2024/02/21 01:53:29;;;;;;;7.47;3.95;;;;;;;6.15;100.00;98995.66;6112750;19;20358;-71
2024/02/21 01:55:29;;;;;;;8.50;3.55;;;;;;;6.10;100.00;98990.38;6112760;19;20470;-71
2024/02/21 01:57:30;;;;;;;10.20;3.60;;;;;;;6.09;100.00;98980.50;6112701;19;20023;-71
2024/02/21 01:59:30;;;;;;;13.07;4.28;;;;;;;6.07;100.00;98987.50;6112232;19;20006;-71
2024/02/21 02:01:30;;;;;;;10.25;3.92;;;;;;;6.07;100.00;98982.00;6112455;19;20017;-71
2024/02/21 02:03:31;;;;;;;11.07;4.50;;;;;;;6.02;100.00;98984.94;6112257;19;20002;-71
2024/02/21 02:05:32;;;;;;;8.45;3.88;;;;;;;5.97;100.00;98991.47;6112394;19;20063;-72
2024/02/21 02:07:32;;;;;;;12.07;4.78;;;;;;;5.96;100.00;98998.09;6113256;19;20017;-71
2024/02/21 02:09:33;;;;;;;8.43;3.72;;;;;;;6.04;100.00;98996.38;6110805;19;20003;-71
2024/02/21 02:11:33;;;;;;;9.43;3.78;;;;;;;6.12;100.00;99001.00;6111114;19;19999;-71
2024/02/21 02:13:33;;;;;;;8.02;3.95;;;;;;;6.11;100.00;99008.44;6112150;19;20030;-71
2024/02/21 02:15:47;;;;;;;8.90;4.00;;;;;;;6.07;100.00;99004.78;6109177;19;20003;-71
2024/02/21 02:17:48;;;;;;;8.63;4.03;;;;;;;6.07;100.00;99010.28;6110415;19;20018;-71
2024/02/21 02:19:48;;;;;;;13.18;4.03;;;;;;;6.01;100.00;99011.59;6109616;19;20006;-71
2024/02/21 02:21:58;;;;;;;10.93;3.88;;;;;;;5.98;100.00;99008.75;6111169;19;20089;-71
2024/02/21 02:23:59;;;;;;;8.75;3.67;;;;;;;5.96;100.00;99009.06;6111670;19;20002;-71
2024/02/21 02:26:03;;;;;;;13.48;5.60;;;;;;;5.98;100.00;99000.50;6111532;19;20328;-72
2024/02/21 02:28:05;;;;;;;12.40;4.03;;;;;;;6.00;100.00;98996.28;6111130;19;20824;-71
2024/02/21 02:30:06;;;;;;;9.77;4.03;;;;;;;6.02;100.00;98993.19;6109111;19;20019;-71
2024/02/21 02:32:06;;;;;;;7.15;3.80;;;;;;;6.05;100.00;98992.53;6110701;19;21234;-71
2024/02/21 02:34:06;;;;;;;9.18;4.63;;;;;;;6.07;100.00;98998.47;6110830;19;20010;-71
2024/02/21 02:36:07;;;;;;;7.63;4.05;;;;;;;6.04;100.00;98994.47;6111836;19;20032;-71
2024/02/21 02:38:07;;;;;;;9.70;4.20;;;;;;;6.06;100.00;98999.63;6111257;19;19991;-71
2024/02/21 02:40:08;;;;;;;9.65;3.42;;;;;;;6.07;100.00;99004.78;6108776;19;20027;-71
2024/02/21 02:42:08;;;;;;;11.80;3.97;;;;;;;6.02;100.00;98988.50;6111045;19;20026;-71
2024/02/21 02:44:09;;;;;;;13.30;4.35;;;;;;;6.04;100.00;98988.16;6110299;19;20464;-71
2024/02/21 02:46:09;;;;;;;12.18;4.53;;;;;;;6.04;100.00;98988.16;6110412;19;20447;-71
2024/02/21 02:48:09;;;;;;;8.73;4.28;;;;;;;6.04;100.00;98988.97;6111257;19;19998;-71
2024/02/21 02:50:10;;;;;;;13.52;4.22;;;;;;;6.04;100.00;98983.50;6107181;19;20325;-71
2024/02/21 02:52:10;;;;;;;14.38;5.03;;;;;;;6.03;100.00;98981.84;6110406;19;20312;-71
2024/02/21 02:54:11;;;;;;;11.10;4.03;;;;;;;6.03;100.00;98983.78;6110190;19;20069;-71
2024/02/21 02:56:15;;;;;;;7.00;3.83;;;;;;;6.01;100.00;98986.09;6110927;19;19999;-71
2024/02/21 02:58:16;;;;;;;9.05;4.13;;;;;;;5.94;100.00;98983.88;6110053;19;20022;-71
2024/02/21 03:00:16;;;;;;;9.82;4.53;;;;;;;5.91;100.00;98981.81;6109501;19;19994;-71
2024/02/21 03:02:17;;;;;;;14.65;4.75;;;;;;;5.88;100.00;98972.28;6110467;19;20017;-71
2024/02/21 03:04:17;;;;;;;9.68;4.38;;;;;;;5.87;100.00;98962.41;6110250;19;20018;-71
2024/02/21 03:06:18;;;;;;;7.55;3.60;;;;;;;5.89;100.00;98962.09;6108496;19;20003;-72
2024/02/21 03:08:18;;;;;;;10.25;4.07;;;;;;;5.94;100.00;98961.09;6110937;19;20010;-71
2024/02/21 03:10:18;;;;;;;11.98;4.60;;;;;;;5.96;100.00;98962.38;6108758;19;20024;-71
2024/02/21 03:12:24;;;;;;;8.93;4.03;;;;;;;5.98;100.00;98956.56;6109765;19;20040;-71
2024/02/21 03:14:25;;;;;;;8.65;4.15;;;;;;;6.01;100.00;98944.88;6100695;19;20017;-71
2024/02/21 03:16:25;;;;;;;11.45;4.43;;;;;;;5.98;100.00;98932.63;6109343;19;20006;-71
2024/02/21 03:18:25;;;;;;;11.73;4.45;;;;;;;5.95;100.00;98936.03;6110888;19;20971;-71
2024/02/21 03:20:26;;;;;;;8.38;3.70;;;;;;;5.96;100.00;98932.16;6108038;19;20502;-71
2024/02/21 03:22:26;;;;;;;13.43;4.70;;;;;;;5.91;100.00;98935.13;6109996;19;20465;-71
2024/02/21 03:24:27;;;;;;;12.13;4.82;;;;;;;5.89;100.00;98932.69;6109679;19;20030;-71
2024/02/21 03:26:27;;;;;;;8.68;4.25;;;;;;;5.90;100.00;98931.56;6110003;19;20027;-71
2024/02/21 03:28:27;;;;;;;7.70;4.03;;;;;;;5.89;100.00;98932.69;6109363;19;20423;-71
2024/02/21 03:30:28;;;;;;;11.77;4.30;;;;;;;5.86;100.00;98938.81;6106312;19;20003;-71
2024/02/21 03:32:28;;;;;;;7.95;4.30;;;;;;;5.93;100.00;98945.75;6110093;19;20010;-71
2024/02/21 03:34:29;;;;;;;10.63;4.47;;;;;;;5.88;100.00;98947.56;6108855;19;20006;-71
2024/02/21 03:36:29;;;;;;;10.35;4.38;;;;;;;5.87;100.00;98942.38;6108748;19;20003;-71
2024/02/21 03:38:29;;;;;;;9.60;4.95;;;;;;;5.87;100.00;98939.63;6109989;19;20003;-71
2024/02/21 03:40:30;;;;;;;12.27;4.30;;;;;;;5.89;100.00;98938.16;6107257;19;20376;-71
2024/02/21 03:42:31;;;;;;;13.52;4.93;;;;;;;5.89;100.00;98935.41;6108329;19;20006;-71
2024/02/21 03:44:32;;;;;;;12.48;4.30;;;;;;;5.84;100.00;98919.13;6108963;19;20338;-71
2024/02/21 03:46:32;;;;;;;6.75;4.05;;;;;;;5.86;100.00;98919.59;6110864;19;20022;-71
2024/02/21 03:48:32;;;;;;;8.35;3.85;;;;;;;5.86;100.00;98910.56;6109544;19;20006;-71
2024/02/21 03:50:33;;;;;;;11.10;3.97;;;;;;;5.86;100.00;98905.88;6108217;19;20042;-71
2024/02/21 03:52:33;;;;;;;12.05;4.35;;;;;;;5.84;100.00;98894.44;6109626;19;20463;-71
2024/02/21 03:54:33;;;;;;;11.90;4.22;;;;;;;5.87;100.00;98891.00;6109889;19;20074;-71
2024/02/21 03:56:38;;;;;;;11.88;4.05;;;;;;;5.88;100.00;98889.06;6109439;19;20032;-71
2024/02/21 03:58:38;;;;;;;11.27;4.20;;;;;;;5.91;100.00;98878.25;6109958;19;20026;-71
2024/02/21 04:00:39;;;;;;;12.18;4.78;;;;;;;5.87;100.00;98869.03;6109815;19;20007;-71
2024/02/21 04:02:39;;;;;;;11.60;4.03;;;;;;;5.90;100.00;98868.41;6108344;19;20018;-71
2024/02/21 04:04:48;;;;;;;10.23;4.57;;;;;;;5.90;100.00;98875.81;6107805;19;20466;-71
2024/02/21 04:06:49;;;;;;;10.07;4.78;;;;;;;5.91;100.00;98877.44;6110127;19;20009;-71
2024/02/21 04:08:50;;;;;;;13.45;4.57;;;;;;;5.89;100.00;98869.50;6107977;19;20003;-71
2024/02/21 04:10:50;;;;;;;10.23;4.25;;;;;;;5.90;100.00;98878.56;6108887;19;20044;-72
2024/02/21 04:12:50;;;;;;;10.98;4.32;;;;;;;5.95;100.00;98889.34;6108640;19;20011;-71
2024/02/21 04:14:51;;;;;;;7.68;4.05;;;;;;;5.96;100.00;98882.72;6102972;19;20030;-71
2024/02/21 04:16:51;;;;;;;10.38;4.30;;;;;;;5.98;100.00;98885.94;6101718;19;20363;-72
2024/02/21 04:18:52;;;;;;;12.98;4.50;;;;;;;5.94;100.00;98878.69;6100253;19;20035;-71
2024/02/21 04:20:52;;;;;;;8.55;4.50;;;;;;;5.90;100.00;98875.81;6100657;19;20367;-71
2024/02/21 04:22:52;;;;;;;10.68;4.50;;;;;;;5.89;100.00;98868.72;6102268;19;20433;-71
2024/02/21 04:24:53;;;;;;;7.30;4.35;;;;;;;5.90;100.00;98856.59;6099861;19;20459;-71
2024/02/21 04:26:53;;;;;;;9.32;4.18;;;;;;;5.95;100.00;98850.88;6102052;19;20451;-71
2024/02/21 04:28:53;;;;;;;9.60;4.53;;;;;;;5.90;100.00;98845.59;6099924;19;20030;-71
2024/02/21 04:30:54;;;;;;;7.05;3.67;;;;;;;5.86;100.00;98828.97;6101094;19;20014;-71
2024/02/21 04:32:54;;;;;;;8.32;3.72;;;;;;;5.90;100.00;98838.19;6100788;19;20339;-71
2024/02/21 04:34:54;;;;;;;7.32;3.28;;;;;;;5.86;100.00;98836.41;6101312;19;20082;-71
2024/02/21 04:36:55;;;;;;;9.13;3.88;;;;;;;5.80;100.00;98857.00;6100756;19;20034;-71
2024/02/21 04:38:55;;;;;;;11.38;4.55;;;;;;;5.80;100.00;98873.47;6099681;19;20010;-72
2024/02/21 04:40:58;;;;;;;11.73;4.22;;;;;;;5.84;100.00;98863.41;6099596;19;20029;-71
2024/02/21 04:42:58;;;;;;;;;;;;;;;5.83;100.00;98870.06;6101964;19;20010;-71
2024/02/21 04:44:58;;;;;;;9.73;4.18;;;;;;;5.82;100.00;98869.25;6100583;19;19911;-71
2024/02/21 04:46:59;;;;;;;8.43;4.07;;;;;;;5.80;100.00;98860.56;6100739;19;20011;-71
2024/02/21 04:48:59;;;;;;;8.48;4.32;;;;;;;5.79;100.00;98867.19;6098525;19;20317;-71
2024/02/21 04:50:59;;;;;;;9.82;4.97;;;;;;;5.75;100.00;98862.69;6100606;19;20026;-71
2024/02/21 04:52:59;;;;;;;11.45;4.20;;;;;;;5.70;100.00;98858.19;6100081;19;20014;-71
2024/02/21 04:55:00;;;;;;;9.60;4.63;;;;;;;5.70;100.00;98868.38;6100558;19;20010;-71
2024/02/21 04:57:00;;;;;;;16.65;4.97;;;;;;;5.74;100.00;98863.84;6100519;19;20252;-71
2024/02/21 04:59:00;;;;;;;11.05;4.53;;;;;;;5.77;100.00;98855.72;6099534;19;20011;-71
2024/02/21 05:01:01;;;;;;;12.32;5.32;;;;;;;5.81;100.00;98855.88;6098373;19;20243;-71
2024/02/21 05:03:01;;;;;;;13.20;4.60;;;;;;;5.78;100.00;98854.56;6101750;19;20006;-71
2024/02/21 05:05:02;;;;;;;9.05;4.57;;;;;;;5.74;100.00;98845.41;6100045;19;20018;-71
2024/02/21 05:07:03;;;;;;;9.45;4.72;;;;;;;5.70;100.00;98841.72;6100536;19;20010;-71
2024/02/21 05:09:03;;;;;;;10.02;4.45;;;;;;;5.75;100.00;98844.28;6098448;19;20003;-71
2024/02/21 05:11:03;;;;;;;10.50;5.00;;;;;;;5.75;100.00;98847.03;6099738;19;20006;-71
2024/02/21 05:13:04;;;;;;;10.82;4.47;;;;;;;5.72;100.00;98835.94;6099628;19;20007;-71
2024/02/21 05:15:05;;;;;;;8.32;4.47;;;;;;;5.70;100.00;98844.47;6102003;19;20479;-71
2024/02/21 05:17:05;;;;;;;12.30;4.78;;;;;;;5.69;100.00;98829.16;6106484;19;20002;-71
2024/02/21 05:19:06;;;;;;;9.00;4.65;;;;;;;5.71;100.00;98829.63;6106854;19;20569;-71
2024/02/21 05:21:06;;;;;;;8.38;4.43;;;;;;;5.73;100.00;98834.78;6107128;19;20018;-71
2024/02/21 05:23:06;;;;;;;12.07;4.45;;;;;;;5.72;100.00;98827.69;6107266;19;20495;-72
2024/02/21 05:25:07;;;;;;;8.30;4.95;;;;;;;5.72;100.00;98817.50;6107714;19;20396;-71
2024/02/21 05:27:07;;;;;;;9.48;4.68;;;;;;;5.74;100.00;98825.41;6112193;19;20007;-71
2024/02/21 05:29:08;;;;;;;10.27;5.28;;;;;;;5.75;100.00;98822.31;6112876;19;20011;-71
2024/02/21 05:31:08;;;;;;;8.35;5.10;;;;;;;5.75;100.00;98814.06;6112665;19;20011;-71
2024/02/21 05:33:09;;;;;;;12.27;4.68;;;;;;;5.81;100.00;98825.66;6113909;19;20022;-71
2024/02/21 05:35:09;;;;;;;10.63;4.25;;;;;;;5.85;100.00;98821.88;6113660;19;20007;-71
2024/02/21 05:37:09;;;;;;;10.80;5.00;;;;;;;5.88;100.00;98825.91;6112808;19;20010;-71
2024/02/21 05:39:10;;;;;;;7.22;4.57;;;;;;;5.90;100.00;98823.63;6112257;19;20015;-71
2024/02/21 05:41:10;;;;;;;11.93;4.93;;;;;;;5.85;100.00;98819.13;6111787;19;20007;-71
2024/02/21 05:43:11;;;;;;;8.52;4.40;;;;;;;5.90;100.00;98815.38;6113803;19;20010;-71
2024/02/21 05:45:11;;;;;;;12.93;4.72;;;;;;;5.86;100.00;98812.50;6113555;19;20007;-71
2024/02/21 05:47:15;;;;;;;11.77;6.32;;;;;;;5.85;100.00;98810.91;6113534;19;20088;-71
2024/02/21 05:49:15;;;;;;;7.07;4.85;;;;;;;5.93;100.00;98806.50;6111773;19;20017;-71
2024/02/21 05:51:15;;;;;;;11.35;5.55;;;;;;;5.89;100.00;98809.09;6112237;19;20002;-71
2024/02/21 05:53:16;;;;;;;14.32;5.70;;;;;;;5.91;100.00;98804.09;6113754;19;20463;-71
2024/02/21 05:55:16;;;;;;;12.73;5.78;;;;;;;6.00;100.00;98804.00;6113166;19;20428;-71
2024/02/21 05:57:20;;;;;;;11.20;6.05;;;;;;;6.02;100.00;98809.94;6114475;19;20015;-71
2024/02/21 05:59:20;;;;;;;13.70;6.30;;;;;;;6.07;100.00;98800.69;6111629;19;19994;-71
2024/02/21 06:01:24;;;;;;;10.95;6.30;;;;;;;6.01;100.00;98794.63;6113184;19;20488;-71
2024/02/21 06:03:24;;;;;;;13.00;5.70;;;;;;;5.99;100.00;98810.63;6112832;19;20523;-71
2024/02/21 06:05:24;;;;;;;10.68;4.50;;;;;;;5.95;100.00;98787.72;6113226;19;21505;-71
2024/02/21 06:07:25;;;;;;;10.65;4.70;;;;;;;5.95;100.00;98795.16;6111999;19;20018;-71
2024/02/21 06:09:25;;;;;;;12.85;5.13;;;;;;;5.97;100.00;98790.97;6112083;19;20006;-71
2024/02/21 06:11:25;;;;;;;12.18;5.32;;;;;;;5.96;100.00;98786.59;6112840;19;19998;-71
2024/02/21 06:13:26;;;;;;;12.95;4.28;;;;;;;5.96;100.00;98783.84;6113667;19;20046;-71
2024/02/21 06:15:27;;;;;;;8.18;4.20;;;;;;;6.01;100.00;98793.81;6112227;19;20253;-71
2024/02/21 06:17:27;;;;;;;11.88;4.00;;;;;;;6.02;100.00;98798.16;6112068;19;20014;-71
2024/02/21 06:19:27;;;;;;;10.25;4.03;;;;;;;6.02;100.00;98804.44;6110414;19;20660;-71
2024/02/21 06:21:31;;;;;;;9.00;4.13;;;;;;;6.04;100.00;98802.19;6110476;19;20006;-71
2024/02/21 06:23:31;;;;;;;8.43;3.53;;;;;;;6.08;100.00;98807.78;6110173;19;20074;-71
2024/02/21 06:25:32;;;;;;;9.80;4.00;;;;;;;6.08;100.00;98803.09;6111569;19;20006;-71
2024/02/21 06:27:32;;;;;;;12.52;5.05;;;;;;;6.05;100.00;98814.78;6109747;19;20002;-71
2024/02/21 06:29:33;;;;;;;10.00;4.00;;;;;;;6.09;100.00;98817.63;6110051;19;20007;-71
2024/02/21 06:31:35;;;;;;;8.63;4.22;;;;;;;6.07;100.00;98807.00;6108488;19;19998;-71
2024/02/21 06:33:35;;;;;;;7.05;3.92;;;;;;;6.07;100.00;98812.50;6111094;19;20478;-71
2024/02/21 06:35:35;;;;;;;9.20;3.95;;;;;;;6.08;100.00;98816.84;6107573;19;19998;-71
2024/02/21 06:37:37;;;;;;;8.10;4.00;;;;;;;6.10;100.00;98816.50;6108617;19;20016;-71
2024/02/21 06:39:38;;;;;;;9.85;4.47;;;;;;;6.10;100.00;98822.78;6109865;19;20003;-71
2024/02/21 06:41:38;;;;;;;10.27;4.07;;;;;;;6.13;100.00;98810.34;6109764;19;20052;-71
2024/02/21 06:43:38;;;;;;;9.02;4.55;;;;;;;6.09;100.00;98812.94;6111006;19;20002;-71
2024/02/21 06:45:39;;;;;;;9.43;3.97;;;;;;;6.15;100.00;98819.81;6110287;19;20568;-71
2024/02/21 06:47:39;;;;;;;11.68;4.35;;;;;;;6.11;100.00;98821.63;6109443;19;20082;-71
2024/02/21 06:49:39;;;;;;;8.95;4.45;;;;;;;6.09;100.00;98823.94;6107950;19;20006;-71
2024/02/21 06:51:40;;;;;;;12.20;5.45;;;;;;;6.11;100.00;98820.84;6107508;19;20032;-71
2024/02/21 06:53:40;;;;;;;7.60;3.97;;;;;;;6.08;100.00;98825.06;6109203;19;20003;-71
2024/02/21 06:55:40;;;;;;;12.63;4.50;;;;;;;6.13;100.00;98830.38;6109234;19;20074;-71
2024/02/21 06:57:41;;;;;;;9.32;4.28;;;;;;;6.08;100.00;98827.81;6108860;19;20476;-71
2024/02/21 06:59:42;;;;;;;10.82;4.47;;;;;;;6.08;100.00;98819.59;6107898;19;20006;-71
2024/02/21 07:01:48;;;;;;;8.30;4.50;;;;;;;6.05;100.00;98814.78;6108375;19;20362;-71
2024/02/21 07:03:48;;;;;;;11.15;5.45;;;;;;;6.01;100.00;98813.84;6108835;19;20026;-71
2024/02/21 07:05:49;;;;;;;9.50;5.45;;;;;;;6.02;100.00;98820.13;6107760;19;20082;-71
2024/02/21 07:07:49;;;;;;;9.82;4.82;;;;;;;6.02;100.00;98814.63;6109061;19;20010;-71
2024/02/21 07:09:49;;;;;;;8.35;4.68;;;;;;;6.02;100.00;98831.13;6108100;19;20074;-71
2024/02/21 07:11:50;;;;;;;17.48;7.45;;;;;;;5.99;100.00;98832.59;6108127;19;20023;-71
2024/02/21 07:13:51;;;;;;;29.58;12.48;;;;;;;5.95;100.00;98826.16;6108718;19;20309;-71
2024/02/21 07:15:52;;;;;;;13.98;7.95;;;;;;;5.96;100.00;98822.31;6108866;19;20002;-71
2024/02/21 07:17:53;;;;;;;10.38;5.88;;;;;;;5.98;100.00;98820.03;5964627;19;2815597;-71
2024/02/21 07:19:56;;;;;;;11.02;4.65;;;;;;;5.96;100.00;98816.00;6109357;19;20006;-71
2024/02/21 07:21:57;;;;;;;12.48;5.60;;;;;;;5.98;100.00;98820.03;6109214;19;20399;-71
2024/02/21 07:23:57;;;;;;;8.48;5.20;;;;;;;5.95;100.00;98826.16;6110594;19;20466;-71
2024/02/21 07:25:58;;;;;;;11.93;5.63;;;;;;;5.94;100.00;98813.59;6110541;19;20010;-71
2024/02/21 07:27:58;;;;;;;10.75;5.28;;;;;;;5.94;100.00;98816.34;6110399;19;20030;-71
2024/02/21 07:29:58;;;;;;;12.63;5.10;;;;;;;5.98;100.00;98821.97;6109060;19;20082;-71
2024/02/21 07:31:59;;;;;;;12.63;5.07;;;;;;;6.00;100.00;98816.94;6109953;19;20490;-71
2024/02/21 07:33:59;;;;;;;8.70;4.82;;;;;;;6.01;100.00;98827.56;6108987;19;20018;-71
2024/02/21 07:35:59;;;;;;;10.68;4.90;;;;;;;6.01;100.00;98824.03;6109320;19;20058;-71
2024/02/21 07:38:00;;;;;;;11.73;5.55;;;;;;;6.03;100.00;98828.03;6110526;19;20618;-71
2024/02/21 07:40:00;;;;;;;9.57;5.40;;;;;;;6.02;100.00;98829.16;6108552;19;20343;-71
2024/02/21 07:42:00;;;;;;;11.75;5.07;;;;;;;6.06;100.00;98835.59;6109281;19;20377;-71
2024/02/21 07:44:01;;;;;;;13.75;6.05;;;;;;;6.08;100.00;98824.28;6110484;19;20009;-71
2024/02/21 07:46:01;;;;;;;11.20;6.00;;;;;;;6.07;100.00;98825.41;6109417;19;20007;-71
2024/02/21 07:48:02;;;;;;;11.77;5.85;;;;;;;6.08;100.00;98829.78;6108406;19;20006;-71
2024/02/21 07:50:03;;;;;;;8.35;4.95;;;;;;;6.05;100.00;98828.50;6106532;19;20365;-71
2024/02/21 07:52:04;;;;;;;10.50;5.22;;;;;;;6.04;100.00;98829.66;6108980;19;20002;-71
2024/02/21 07:54:04;;;;;;;12.20;5.32;;;;;;;6.08;100.00;98833.31;6110014;19;20472;-71
2024/02/21 07:56:05;;;;;;;12.65;5.63;;;;;;;6.07;100.00;98834.47;6109672;19;20003;-71
2024/02/21 07:58:06;;;;;;;11.07;4.90;;;;;;;6.10;100.00;98825.53;6109844;19;20010;-71
2024/02/21 08:00:09;;;;;;;10.98;4.60;;;;;;;6.14;100.00;98829.22;6107283;19;20007;-71
2024/02/21 08:02:10;;;;;;;9.93;5.38;;;;;;;6.16;100.00;98817.88;6110433;19;20074;-71
2024/02/21 08:04:10;;;;;;;13.82;5.32;;;;;;;6.17;100.00;98817.53;6109156;19;20015;-71
2024/02/21 08:06:13;;;;;;;9.85;5.88;;;;;;;6.17;100.00;98808.50;6109976;19;20032;-71
2024/02/21 08:08:18;;;;;;;8.40;4.85;;;;;;;6.22;100.00;98815.72;6109901;19;20011;-72
2024/02/21 08:10:18;;;;;;;10.32;5.32;;;;;;;6.20;100.00;98816.84;6108201;19;20007;-72
2024/02/21 08:12:18;;;;;;;11.40;5.50;;;;;;;6.25;100.00;98804.84;6109937;19;20033;-72
2024/02/21 08:14:19;;;;;;;9.10;4.63;;;;;;;6.30;100.00;98806.59;6098865;19;20613;-72
2024/02/21 08:16:19;;;;;;;8.43;5.03;;;;;;;6.28;100.00;98804.16;6109025;19;19999;-72
2024/02/21 08:18:19;;;;;;;13.50;5.10;;;;;;;6.29;100.00;98792.03;6108678;19;20350;-72
2024/02/21 08:20:20;;;;;;;12.52;5.13;;;;;;;6.28;100.00;98795.91;6106963;19;20488;-72
2024/02/21 08:22:20;;;;;;;13.77;5.47;;;;;;;6.30;100.00;98792.84;6109006;19;20081;-72
2024/02/21 08:24:22;;;;;;;12.05;5.82;;;;;;;6.31;100.00;98786.19;6106297;19;20014;-72
2024/02/21 08:26:23;;;;;;;9.48;6.00;;;;;;;6.33;100.00;98795.69;6109028;19;20023;-72
2024/02/21 08:28:23;;;;;;;10.85;4.70;;;;;;;6.35;100.00;98801.66;6109880;19;20006;-72
2024/02/21 08:30:24;;;;;;;9.23;4.43;;;;;;;6.35;100.00;98787.91;6108232;19;20007;-72
2024/02/21 08:32:24;;;;;;;8.15;4.78;;;;;;;6.35;100.00;98787.09;6106616;19;20002;-72
2024/02/21 08:34:24;;;;;;;10.25;5.15;;;;;;;6.37;100.00;98791.13;6109193;19;20298;-72
2024/02/21 08:36:25;;;;;;;10.35;4.50;;;;;;;6.39;100.00;98788.84;6109112;19;20006;-72
2024/02/21 08:38:25;;;;;;;11.63;5.60;;;;;;;6.41;100.00;98791.25;6107442;19;20432;-72
2024/02/21 08:40:25;;;;;;;7.07;4.57;;;;;;;6.41;100.00;98789.28;6107496;19;20025;-72
2024/02/21 08:42:25;;;;;;;9.05;4.93;;;;;;;6.43;100.00;98797.97;6108972;19;20526;-72
2024/02/21 08:44:28;;;;;;;8.48;4.18;;;;;;;6.44;100.00;98788.59;6108145;19;20070;-72
2024/02/21 08:46:28;;;;;;;8.55;4.97;;;;;;;6.44;100.00;98782.28;6108311;19;20464;-72
2024/02/21 08:48:28;;;;;;;12.50;4.57;;;;;;;6.43;100.00;98780.69;6109301;19;20040;-72
2024/02/21 08:50:29;;;;;;;9.00;4.55;;;;;;;6.49;100.00;98790.31;6106762;19;20017;-72
2024/02/21 08:52:29;;;;;;;10.38;4.60;;;;;;;6.50;100.00;98793.88;6108331;19;20006;-72
2024/02/21 08:54:29;;;;;;;8.82;4.13;;;;;;;6.46;100.00;98794.56;6109229;19;20006;-72
2024/02/21 08:56:31;;;;;;;8.13;4.35;;;;;;;6.45;100.00;98786.66;6106936;19;20003;-72
2024/02/21 08:58:31;;;;;;;8.70;4.30;;;;;;;6.44;100.00;98785.84;6108685;19;20002;-72
2024/02/21 09:00:31;;;;;;;6.78;4.00;;;;;;;6.42;100.00;98779.91;6106863;19;19999;-72
2024/02/21 09:02:32;;;;;;;8.35;4.43;;;;;;;6.45;100.00;98786.66;6106726;19;19998;-72
2024/02/21 09:04:33;;;;;;;9.32;4.45;;;;;;;6.42;100.00;98776.34;6109020;19;20003;-72
2024/02/21 09:06:36;;;;;;;8.00;3.95;;;;;;;6.42;100.00;98779.09;6108274;19;19998;-72
2024/02/21 09:08:36;;;;;;;7.85;4.07;;;;;;;6.42;100.00;98782.66;6108362;19;20026;-72
2024/02/21 09:10:36;;;;;;;9.02;4.60;;;;;;;6.41;100.00;98775.53;6107282;19;20623;-72
2024/02/21 09:12:37;;;;;;;5.47;3.55;;;;;;;6.43;100.00;98775.19;6107407;19;20058;-72
2024/02/21 09:14:40;;;;;;;7.25;3.50;;;;;;;6.41;100.00;98772.00;6105364;19;20015;-72
2024/02/21 09:16:40;;;;;;;5.05;3.55;;;;;;;6.42;100.00;98776.34;6100573;19;20009;-72
2024/02/21 09:18:41;;;;;;;8.50;4.15;;;;;;;6.43;100.00;98767.75;6098034;19;20003;-72
2024/02/21 09:20:41;;;;;;;7.80;3.80;;;;;;;6.41;100.00;98764.56;6099464;19;20106;-72
2024/02/21 09:22:42;;;;;;;5.10;3.85;;;;;;;6.42;100.00;98768.91;6099988;19;20011;-72
2024/02/21 09:24:42;;;;;;;8.82;3.88;;;;;;;6.44;100.00;98765.81;6099396;19;20339;-72